createdAt,value
2022-08-29T00:00:58.650Z,2.47
2022-08-29T00:03:25.166Z,2.30
2022-08-29T00:05:51.781Z,2.38
2022-08-29T00:08:18.524Z,2.45
2022-08-29T00:10:45.555Z,2.70
2022-08-29T00:13:14.938Z,2.67
2022-08-29T00:15:45.011Z,2.28
2022-08-29T00:18:15.580Z,2.63
2022-08-29T00:20:43.289Z,2.50
2022-08-29T00:23:11.195Z,2.67
2022-08-29T00:25:38.358Z,2.90
2022-08-29T00:28:05.518Z,2.35
2022-08-29T00:30:34.015Z,2.78
2022-08-29T00:33:00.563Z,2.47
2022-08-29T00:35:34.048Z,2.70
2022-08-29T00:38:01.264Z,2.10
2022-08-29T00:40:33.380Z,2.92
2022-08-29T00:43:01.698Z,3.05
2022-08-29T00:45:29.401Z,2.60
2022-08-29T00:48:05.245Z,2.83
2022-08-29T00:50:40.606Z,2.93
2022-08-29T00:53:12.204Z,2.95
2022-08-29T00:55:41.023Z,2.85
2022-08-29T00:58:25.249Z,2.47
2022-08-29T01:00:53.556Z,2.60
2022-08-29T01:03:20.903Z,2.50
2022-08-29T01:05:48.599Z,2.42
2022-08-29T01:08:15.828Z,2.33
2022-08-29T01:11:01.390Z,2.60
2022-08-29T01:13:36.198Z,2.58
2022-08-29T01:16:04.791Z,2.65
2022-08-29T01:18:35.159Z,2.28
2022-08-29T01:21:34.879Z,3.00
2022-08-29T01:24:16.070Z,2.38
2022-08-29T01:26:46.220Z,2.72
2022-08-29T01:29:15.077Z,2.65
2022-08-29T01:31:57.191Z,2.33
2022-08-29T01:34:28.115Z,2.63
2022-08-29T01:37:00.302Z,2.78
2022-08-29T01:39:32.135Z,2.65
2022-08-29T01:42:03.759Z,2.90
2022-08-29T01:44:30.519Z,3.17
2022-08-29T01:47:03.053Z,2.70
2022-08-29T01:49:33.214Z,2.67
2022-08-29T01:52:00.834Z,3.10
2022-08-29T01:54:30.127Z,2.60
2022-08-29T01:56:56.938Z,2.63
2022-08-29T01:59:28.128Z,3.00
2022-08-29T02:02:17.449Z,3.05
2022-08-29T02:04:47.090Z,3.05
2022-08-29T02:07:19.683Z,2.90
2022-08-29T02:09:47.574Z,3.13
2022-08-29T02:12:15.621Z,3.10
2022-08-29T02:14:42.838Z,3.05
2022-08-29T02:17:10.111Z,3.10
2022-08-29T02:19:38.766Z,2.72
2022-08-29T02:22:07.150Z,2.97
2022-08-29T02:24:33.792Z,3.55
2022-08-29T02:27:00.565Z,3.25
2022-08-29T02:29:37.215Z,3.25
2022-08-29T02:32:11.898Z,3.30
2022-08-29T02:34:39.933Z,3.15
2022-08-29T02:37:10.938Z,3.40
2022-08-29T02:39:37.727Z,2.95
2022-08-29T02:42:04.945Z,2.40
2022-08-29T02:44:31.777Z,3.40
2022-08-29T02:46:58.341Z,3.20
2022-08-29T02:49:24.969Z,2.80
2022-08-29T02:51:51.471Z,2.80
2022-08-29T02:54:18.006Z,2.50
2022-08-29T02:56:44.484Z,3.15
2022-08-29T02:59:10.974Z,3.40
2022-08-29T03:01:39.066Z,3.20
2022-08-29T03:04:06.487Z,2.67
2022-08-29T03:06:33.791Z,2.65
2022-08-29T03:09:01.213Z,2.80
2022-08-29T03:11:28.662Z,2.78
2022-08-29T03:13:57.466Z,2.90
2022-08-29T03:16:26.638Z,2.83
2022-08-29T03:18:54.539Z,2.38
2022-08-29T03:21:24.927Z,2.55
2022-08-29T03:23:53.383Z,2.80
2022-08-29T03:26:20.541Z,3.22
2022-08-29T03:28:48.166Z,3.10
2022-08-29T03:31:15.037Z,3.22
2022-08-29T03:33:41.841Z,3.28
2022-08-29T03:36:14.305Z,2.60
2022-08-29T03:38:46.363Z,2.75
2022-08-29T03:41:24.924Z,2.85
2022-08-29T03:43:52.140Z,3.28
2022-08-29T03:46:19.132Z,2.80
2022-08-29T03:48:45.744Z,2.72
2022-08-29T03:51:12.491Z,3.22
2022-08-29T03:53:40.689Z,3.00
2022-08-29T03:56:08.615Z,3.10
2022-08-29T03:58:38.090Z,2.90
2022-08-29T04:01:05.479Z,2.47
2022-08-29T04:03:32.520Z,2.97
2022-08-29T04:05:59.238Z,3.10
2022-08-29T04:08:25.851Z,2.80
2022-08-29T04:10:52.368Z,3.40
2022-08-29T04:13:18.867Z,3.05
2022-08-29T04:15:45.381Z,3.22
2022-08-29T04:18:12.143Z,2.90
2022-08-29T04:20:44.747Z,2.80
2022-08-29T04:23:13.307Z,2.70
2022-08-29T04:25:42.423Z,3.50
2022-08-29T04:28:13.490Z,3.45
2022-08-29T04:30:40.349Z,3.40
2022-08-29T04:33:08.073Z,4.10
2022-08-29T04:35:40.006Z,3.92
2022-08-29T04:38:06.894Z,3.60
2022-08-29T04:40:34.433Z,3.70
2022-08-29T04:43:01.434Z,3.13
2022-08-29T04:45:28.082Z,3.10
2022-08-29T04:47:54.634Z,3.50
2022-08-29T04:50:23.973Z,3.83
2022-08-29T04:52:52.259Z,4.03
2022-08-29T04:55:25.485Z,4.78
2022-08-29T04:57:54.111Z,4.75
2022-08-29T05:00:25.464Z,5.50
2022-08-29T05:02:52.044Z,5.55
2022-08-29T05:05:18.747Z,5.82
2022-08-29T05:07:46.398Z,6.18
2022-08-29T05:10:17.585Z,6.00
2022-08-29T05:12:45.635Z,5.38
2022-08-29T05:15:13.897Z,5.10
2022-08-29T05:17:40.741Z,4.20
2022-08-29T05:20:08.483Z,4.50
2022-08-29T05:22:37.647Z,4.72
2022-08-29T05:25:05.037Z,4.65
2022-08-29T05:27:32.154Z,4.43
2022-08-29T05:29:58.830Z,4.32
2022-08-29T05:32:25.682Z,3.83
2022-08-29T05:34:52.419Z,3.70
2022-08-29T05:37:21.288Z,4.00
2022-08-29T05:39:49.605Z,3.72
2022-08-29T05:42:19.614Z,3.60
2022-08-29T05:44:46.936Z,3.50
2022-08-29T05:47:16.980Z,3.38
2022-08-29T05:49:45.883Z,3.17
2022-08-29T05:52:16.158Z,3.90
2022-08-29T05:54:44.100Z,3.30
2022-08-29T05:57:18.936Z,3.70
2022-08-29T05:59:52.619Z,3.53
2022-08-29T06:02:21.418Z,3.58
2022-08-29T06:04:49.208Z,3.83
2022-08-29T06:07:15.952Z,4.20
2022-08-29T06:09:44.058Z,4.68
2022-08-29T06:12:14.003Z,5.65
2022-08-29T06:14:41.630Z,5.43
2022-08-29T06:17:16.859Z,5.13
2022-08-29T06:19:43.382Z,5.50
2022-08-29T06:22:10.667Z,5.82
2022-08-29T06:24:39.423Z,5.15
2022-08-29T06:27:06.025Z,4.00
2022-08-29T06:29:32.770Z,4.28
2022-08-29T06:32:09.377Z,4.50
2022-08-29T06:34:35.934Z,3.90
2022-08-29T06:37:02.435Z,3.88
2022-08-29T06:39:29.041Z,4.20
2022-08-29T06:41:55.524Z,4.38
2022-08-29T06:44:22.106Z,3.78
2022-08-29T06:46:49.935Z,4.05
2022-08-29T06:49:19.772Z,3.67
2022-08-29T06:51:54.170Z,3.53
2022-08-29T06:54:28.244Z,3.45
2022-08-29T06:56:56.567Z,3.67
2022-08-29T06:59:23.227Z,3.35
2022-08-29T07:01:50.264Z,3.58
2022-08-29T07:04:16.839Z,3.85
2022-08-29T07:06:47.794Z,3.72
2022-08-29T07:09:14.390Z,4.13
2022-08-29T07:11:42.702Z,4.05
2022-08-29T07:14:10.258Z,3.95
2022-08-29T07:16:37.659Z,4.38
2022-08-29T07:19:06.050Z,4.25
2022-08-29T07:21:33.516Z,3.70
2022-08-29T07:24:00.230Z,4.43
2022-08-29T07:26:36.053Z,4.32
2022-08-29T07:29:10.778Z,4.30
2022-08-29T07:31:39.114Z,4.20
2022-08-29T07:34:06.877Z,3.90
2022-08-29T07:36:34.797Z,4.25
2022-08-29T07:39:05.450Z,4.00
2022-08-29T07:41:32.011Z,2.97
2022-08-29T07:43:58.536Z,3.47
2022-08-29T07:46:26.851Z,4.22
2022-08-29T07:48:53.675Z,3.80
2022-08-29T07:51:23.522Z,3.60
2022-08-29T07:53:52.041Z,4.00
2022-08-29T07:56:37.561Z,3.80
2022-08-29T07:59:04.510Z,3.63
2022-08-29T08:01:31.137Z,4.15
2022-08-29T08:03:58.373Z,4.70
2022-08-29T08:06:27.309Z,3.92
2022-08-29T08:08:55.411Z,3.65
2022-08-29T08:11:25.540Z,4.10
2022-08-29T08:13:54.902Z,6.82
2022-08-29T08:16:24.979Z,4.00
2022-08-29T08:18:52.806Z,3.63
2022-08-29T08:21:19.726Z,3.42
2022-08-29T08:23:46.598Z,3.13
2022-08-29T08:26:14.398Z,3.60
2022-08-29T08:28:43.536Z,3.63
2022-08-29T08:31:14.317Z,3.55
2022-08-29T08:33:42.411Z,3.80
2022-08-29T08:36:18.331Z,6.90
2022-08-29T08:38:45.256Z,4.13
2022-08-29T08:41:34.016Z,3.45
2022-08-29T08:44:09.023Z,3.28
2022-08-29T08:46:44.625Z,3.67
2022-08-29T08:49:34.959Z,4.30
2022-08-29T08:52:10.425Z,3.13
2022-08-29T08:54:53.222Z,2.83
2022-08-29T08:57:22.114Z,3.22
2022-08-29T08:59:59.069Z,3.05
2022-08-29T09:03:19.285Z,3.55
2022-08-29T09:06:08.309Z,2.80
2022-08-29T09:09:14.391Z,3.47
2022-08-29T09:11:59.997Z,3.17
2022-08-29T09:14:57.006Z,2.85
2022-08-29T09:17:41.206Z,3.63
2022-08-29T09:20:15.199Z,2.72
2022-08-29T09:22:52.562Z,2.97
2022-08-29T09:25:19.110Z,3.10
2022-08-29T09:27:45.614Z,3.47
2022-08-29T09:30:24.367Z,3.22
2022-08-29T09:33:15.027Z,3.17
2022-08-29T09:35:52.466Z,6.57
2022-08-29T09:38:18.923Z,4.05
2022-08-29T09:41:07.931Z,3.50
2022-08-29T09:43:40.568Z,3.47
2022-08-29T09:46:26.265Z,2.70
2022-08-29T09:49:17.607Z,2.83
2022-08-29T09:51:49.252Z,2.92
2022-08-29T09:54:27.296Z,2.95
2022-08-29T09:57:19.926Z,2.55
2022-08-29T10:00:12.052Z,3.03
2022-08-29T10:02:56.064Z,2.95
2022-08-29T10:05:44.570Z,2.90
2022-08-29T10:08:35.209Z,3.20
2022-08-29T10:11:08.911Z,3.08
2022-08-29T10:13:52.099Z,2.55
2022-08-29T10:16:38.406Z,3.25
2022-08-29T10:19:18.100Z,3.42
2022-08-29T10:22:14.071Z,2.72
2022-08-29T10:24:54.264Z,2.95
2022-08-29T10:27:51.693Z,3.00
2022-08-29T10:30:26.668Z,5.18
2022-08-29T10:33:17.191Z,3.20
2022-08-29T10:35:57.766Z,2.85
2022-08-29T10:38:46.803Z,3.13
2022-08-29T10:41:13.238Z,2.83
2022-08-29T10:43:49.577Z,2.97
2022-08-29T10:49:52.049Z,2.67
2022-08-29T10:52:33.935Z,4.85
2022-08-29T10:55:15.130Z,2.97
2022-08-29T10:58:03.272Z,2.55
2022-08-29T11:00:46.702Z,3.45
2022-08-29T11:03:40.223Z,2.75
2022-08-29T11:06:18.266Z,2.72
2022-08-29T11:09:08.622Z,2.58
2022-08-29T11:11:41.165Z,2.60
2022-08-29T11:14:27.489Z,2.30
2022-08-29T11:16:56.532Z,2.92
2022-08-29T11:19:44.234Z,2.70
2022-08-29T11:22:35.978Z,2.72
2022-08-29T11:25:20.107Z,3.25
2022-08-29T11:28:07.106Z,2.80
2022-08-29T11:30:52.159Z,2.88
2022-08-29T11:34:01.542Z,2.70
2022-08-29T11:36:27.978Z,2.67
2022-08-29T11:39:18.818Z,3.40
2022-08-29T11:41:58.479Z,3.15
2022-08-29T11:44:37.771Z,3.38
2022-08-29T11:48:16.194Z,3.08
2022-08-29T11:50:43.678Z,3.05
2022-08-29T11:53:34.252Z,3.15
2022-08-29T11:56:12.827Z,2.95
2022-08-29T11:58:40.286Z,3.22
2022-08-29T12:01:20.413Z,3.00
2022-08-29T12:03:47.071Z,2.90
2022-08-29T12:06:35.078Z,3.30
2022-08-29T12:09:14.393Z,3.05
2022-08-29T12:11:59.175Z,3.00
2022-08-29T12:14:48.867Z,3.22
2022-08-29T12:17:19.016Z,3.05
2022-08-29T12:19:50.041Z,3.28
2022-08-29T12:22:55.891Z,3.78
2022-08-29T12:25:28.491Z,3.47
2022-08-29T12:28:18.427Z,2.30
2022-08-29T12:30:52.756Z,3.08
2022-08-29T12:33:29.621Z,2.70
2022-08-29T12:36:20.303Z,3.00
2022-08-29T12:39:03.898Z,2.58
2022-08-29T12:41:46.983Z,2.55
2022-08-29T12:44:18.395Z,3.90
2022-08-29T12:46:51.330Z,3.47
2022-08-29T12:49:50.878Z,2.60
2022-08-29T12:52:31.642Z,2.70
2022-08-29T12:55:39.698Z,2.90
2022-08-29T12:58:14.569Z,2.72
2022-08-29T13:00:41.991Z,3.03
2022-08-29T13:03:21.197Z,3.17
2022-08-29T13:05:48.483Z,3.00
2022-08-29T13:08:28.287Z,2.60
2022-08-29T13:10:59.505Z,3.00
2022-08-29T13:13:28.348Z,3.00
2022-08-29T13:16:01.809Z,3.92
2022-08-29T13:18:31.082Z,3.17
2022-08-29T13:21:28.449Z,3.05
2022-08-29T13:24:02.094Z,2.53
2022-08-29T13:26:32.382Z,2.50
2022-08-29T13:29:23.407Z,2.60
2022-08-29T13:32:23.585Z,2.85
2022-08-29T13:35:31.490Z,3.00
2022-08-29T13:38:25.739Z,2.92
2022-08-29T13:40:58.591Z,2.83
2022-08-29T13:43:43.095Z,3.25
2022-08-29T13:46:14.881Z,3.25
2022-08-29T13:48:43.541Z,2.80
2022-08-29T13:51:11.116Z,3.72
2022-08-29T13:53:37.749Z,2.60
2022-08-29T13:56:20.899Z,2.90
2022-08-29T13:58:48.093Z,2.42
2022-08-29T14:01:31.034Z,2.78
2022-08-29T14:04:15.366Z,2.72
2022-08-29T14:06:48.279Z,2.60
2022-08-29T14:09:22.439Z,2.47
2022-08-29T14:11:48.907Z,2.53
2022-08-29T14:14:15.647Z,2.90
2022-08-29T14:16:42.246Z,2.53
2022-08-29T14:19:08.748Z,3.25
2022-08-29T14:21:35.308Z,2.90
2022-08-29T14:24:01.914Z,2.75
2022-08-29T14:26:28.509Z,2.83
2022-08-29T14:28:55.107Z,3.10
2022-08-29T14:31:21.697Z,3.20
2022-08-29T14:33:51.677Z,2.90
2022-08-29T14:36:18.712Z,3.45
2022-08-29T14:38:45.356Z,3.15
2022-08-29T14:41:11.864Z,2.45
2022-08-29T14:43:40.059Z,2.90
2022-08-29T14:46:07.462Z,3.00
2022-08-29T14:48:34.446Z,2.97
2022-08-29T14:51:01.232Z,2.90
2022-08-29T14:53:27.746Z,2.58
2022-08-29T14:55:56.201Z,3.00
2022-08-29T14:58:23.093Z,2.85
2022-08-29T15:00:49.643Z,2.70
2022-08-29T15:03:19.272Z,3.05
2022-08-29T15:05:47.315Z,2.92
2022-08-29T15:08:17.907Z,2.53
2022-08-29T15:10:44.904Z,3.10
2022-08-29T15:13:11.572Z,3.10
2022-08-29T15:15:38.166Z,3.95
2022-08-29T15:18:07.806Z,2.90
2022-08-29T15:20:37.170Z,3.03
2022-08-29T15:23:04.250Z,3.13
2022-08-29T15:25:30.983Z,3.10
2022-08-29T15:27:57.518Z,3.13
2022-08-29T15:30:25.734Z,2.97
2022-08-29T15:32:52.867Z,3.03
2022-08-29T15:35:19.527Z,3.03
2022-08-29T15:37:46.066Z,3.10
2022-08-29T15:40:13.785Z,3.20
2022-08-29T15:42:41.155Z,3.00
2022-08-29T15:45:10.514Z,3.03
2022-08-29T15:47:39.632Z,2.78
2022-08-29T15:50:08.464Z,2.95
2022-08-29T15:52:35.993Z,3.20
2022-08-29T15:55:04.286Z,3.10
2022-08-29T15:57:30.834Z,2.97
2022-08-29T15:59:58.669Z,2.92
2022-08-29T16:02:27.487Z,3.15
2022-08-29T16:04:57.171Z,4.18
2022-08-29T16:07:28.959Z,3.10
2022-08-29T16:09:57.619Z,2.88
2022-08-29T16:12:24.145Z,2.90
2022-08-29T16:14:59.629Z,3.20
2022-08-29T16:19:56.125Z,3.00
2022-08-29T16:22:22.703Z,2.70
2022-08-29T16:24:49.343Z,2.88
2022-08-29T16:27:16.478Z,3.05
2022-08-29T16:29:43.269Z,3.15
2022-08-29T16:32:09.764Z,2.85
2022-08-29T16:34:36.314Z,3.00
2022-08-29T16:37:03.162Z,3.30
2022-08-29T16:39:29.901Z,3.38
2022-08-29T16:41:56.717Z,3.33
2022-08-29T16:44:23.978Z,2.90
2022-08-29T16:46:51.511Z,3.10
2022-08-29T16:49:18.292Z,2.90
2022-08-29T16:51:44.842Z,2.92
2022-08-29T16:54:12.307Z,3.28
2022-08-29T16:56:39.646Z,3.20
2022-08-29T16:59:07.231Z,3.05
2022-08-29T17:01:37.669Z,3.20
2022-08-29T17:04:09.862Z,3.00
2022-08-29T17:06:36.879Z,3.00
2022-08-29T17:09:06.509Z,3.00
2022-08-29T17:11:36.799Z,3.40
2022-08-29T17:14:04.132Z,3.13
2022-08-29T17:16:31.358Z,2.70
2022-08-29T17:18:58.367Z,2.90
2022-08-29T17:21:26.591Z,2.90
2022-08-29T17:23:55.235Z,3.08
2022-08-29T17:26:23.253Z,2.83
2022-08-29T17:28:50.774Z,2.90
2022-08-29T17:31:18.937Z,3.20
2022-08-29T17:33:46.556Z,3.10
2022-08-29T17:36:14.046Z,3.05
2022-08-29T17:38:46.788Z,3.40
2022-08-29T17:41:20.585Z,3.22
2022-08-29T17:43:49.279Z,2.95
2022-08-29T17:46:18.395Z,3.00
2022-08-29T17:48:45.846Z,3.38
2022-08-29T17:51:12.637Z,3.03
2022-08-29T17:53:40.733Z,3.35
2022-08-29T17:56:29.253Z,2.88
2022-08-29T17:58:57.489Z,2.83
2022-08-29T18:01:24.316Z,3.13
2022-08-29T18:03:51.134Z,3.40
2022-08-29T18:06:18.691Z,2.70
2022-08-29T18:08:47.969Z,3.22
2022-08-29T18:11:17.171Z,2.72
2022-08-29T18:13:45.906Z,2.95
2022-08-29T18:16:14.551Z,2.97
2022-08-29T18:18:42.136Z,2.90
2022-08-29T18:21:09.152Z,2.72
2022-08-29T18:23:37.195Z,2.70
2022-08-29T18:26:05.230Z,3.05
2022-08-29T18:28:32.745Z,2.83
2022-08-29T18:30:59.406Z,3.20
2022-08-29T18:33:38.717Z,3.17
2022-08-29T18:36:15.177Z,3.38
2022-08-29T18:38:41.930Z,3.33
2022-08-29T18:41:08.640Z,2.85
2022-08-29T18:43:35.654Z,3.22
2022-08-29T18:46:03.955Z,3.10
2022-08-29T18:48:31.564Z,2.97
2022-08-29T18:50:59.869Z,2.53
2022-08-29T18:53:31.436Z,2.67
2022-08-29T18:56:00.431Z,2.42
2022-08-29T18:58:31.572Z,2.72
2022-08-29T19:01:08.403Z,2.95
2022-08-29T19:03:34.937Z,2.80
2022-08-29T19:06:01.448Z,2.75
2022-08-29T19:08:28.012Z,3.20
2022-08-29T19:10:56.086Z,3.15
2022-08-29T19:13:25.411Z,2.83
2022-08-29T19:15:56.624Z,3.10
2022-08-29T19:18:23.474Z,3.03
2022-08-29T19:21:02.319Z,2.83
2022-08-29T19:23:32.645Z,2.65
2022-08-29T19:26:00.882Z,3.78
2022-08-29T19:28:27.775Z,2.53
2022-08-29T19:30:55.347Z,3.08
2022-08-29T19:33:22.602Z,3.03
2022-08-29T19:35:51.312Z,3.00
2022-08-29T19:38:20.755Z,3.03
2022-08-29T19:40:57.208Z,2.55
2022-08-29T19:43:27.419Z,3.47
2022-08-29T19:45:55.963Z,2.92
2022-08-29T19:48:23.239Z,3.10
2022-08-29T19:50:54.416Z,3.08
2022-08-29T19:53:26.576Z,3.75
2022-08-29T19:55:55.498Z,3.40
2022-08-29T19:58:22.828Z,3.10
2022-08-29T20:00:57.820Z,3.70
2022-08-29T20:03:24.553Z,3.35
2022-08-29T20:05:51.597Z,3.05
2022-08-29T20:08:18.178Z,2.78
2022-08-29T20:10:50.174Z,3.00
2022-08-29T20:13:17.285Z,3.22
2022-08-29T20:15:44.275Z,3.75
2022-08-29T20:18:10.831Z,2.88
2022-08-29T20:20:39.814Z,3.10
2022-08-29T20:23:07.759Z,3.03
2022-08-29T20:25:35.337Z,3.30
2022-08-29T20:28:02.655Z,3.42
2022-08-29T20:30:33.163Z,3.13
2022-08-29T20:32:59.947Z,3.45
2022-08-29T20:35:45.848Z,2.90
2022-08-29T20:38:12.717Z,3.20
2022-08-29T20:40:46.609Z,3.05
2022-08-29T20:43:15.313Z,3.13
2022-08-29T20:45:42.337Z,3.38
2022-08-29T20:48:10.454Z,3.40
2022-08-29T20:50:37.037Z,3.10
2022-08-29T20:53:05.518Z,2.90
2022-08-29T20:55:32.058Z,3.00
2022-08-29T20:57:58.556Z,3.15
2022-08-29T21:00:25.154Z,2.72
2022-08-29T21:03:10.127Z,2.85
2022-08-29T21:05:44.710Z,3.00
2022-08-29T21:08:18.146Z,3.15
2022-08-29T21:10:46.822Z,2.83
2022-08-29T21:13:14.748Z,2.72
2022-08-29T21:15:43.035Z,2.88
2022-08-29T21:18:12.333Z,2.70
2022-08-29T21:20:53.489Z,2.58
2022-08-29T21:23:22.886Z,2.92
2022-08-29T21:25:59.498Z,3.08
2022-08-29T21:28:28.503Z,3.05
2022-08-29T21:30:55.615Z,2.95
2022-08-29T21:33:23.086Z,3.05
2022-08-29T21:35:49.765Z,3.10
2022-08-29T21:38:16.933Z,2.80
2022-08-29T21:40:50.856Z,2.67
2022-08-29T21:43:19.577Z,3.03
2022-08-29T21:45:47.393Z,3.25
2022-08-29T21:48:14.086Z,3.42
2022-08-29T21:50:40.632Z,3.17
2022-08-29T21:53:07.360Z,3.40
2022-08-29T21:55:33.889Z,3.00
2022-08-29T21:58:01.240Z,2.80
2022-08-29T22:00:36.378Z,2.92
2022-08-29T22:03:07.101Z,2.90
2022-08-29T22:05:33.758Z,2.78
2022-08-29T22:08:03.081Z,2.70
2022-08-29T22:10:35.191Z,3.05
2022-08-29T22:13:03.375Z,2.70
2022-08-29T22:15:48.722Z,3.20
2022-08-29T22:18:16.087Z,3.15
2022-08-29T22:20:46.465Z,2.88
2022-08-29T22:23:18.867Z,2.90
2022-08-29T22:25:47.197Z,3.00
2022-08-29T22:28:13.742Z,3.20
2022-08-29T22:30:40.274Z,3.10
2022-08-29T22:33:18.013Z,2.70
2022-08-29T22:35:44.683Z,3.22
2022-08-29T22:38:11.246Z,3.38
2022-08-29T22:40:38.667Z,2.80
2022-08-29T22:43:05.223Z,3.20
2022-08-29T22:45:32.265Z,2.65
2022-08-29T22:47:58.805Z,2.92
2022-08-29T22:50:26.144Z,2.95
2022-08-29T22:52:59.132Z,2.60
2022-08-29T23:00:24.157Z,2.83
2022-08-29T23:02:52.155Z,3.38
2022-08-29T23:05:21.055Z,2.85
2022-08-29T23:07:48.164Z,2.60
2022-08-29T23:10:15.444Z,2.95
2022-08-29T23:12:42.086Z,2.70
2022-08-29T23:15:15.307Z,2.47
2022-08-29T23:17:41.944Z,2.90
2022-08-29T23:20:12.213Z,2.97
2022-08-29T23:22:39.490Z,3.10
2022-08-29T23:25:11.961Z,2.75
2022-08-29T23:27:39.148Z,3.13
2022-08-29T23:30:12.326Z,3.00
2022-08-29T23:32:38.947Z,3.00
2022-08-29T23:35:07.529Z,2.78
2022-08-29T23:37:34.626Z,2.85
2022-08-29T23:40:02.220Z,2.67
2022-08-29T23:42:31.775Z,2.67
2022-08-29T23:44:58.288Z,2.70
2022-08-29T23:47:24.916Z,2.70
2022-08-29T23:49:51.452Z,2.60
2022-08-29T23:52:18.000Z,2.50
2022-08-29T23:54:44.509Z,2.20
2022-08-29T23:57:11.127Z,2.75
2022-08-29T23:59:56.567Z,2.78
